Cassville, New York
Current Conditions -  °F | °C
As of 9:53 PM on Wednesday 26 Nov 2014 (Local Time) from KRME Reporting Station
Light Snow Light Snow  
Wind Chill: 22°   Ceiling: 3000
Heat Index: 29°   Visibility: 2.5mi
Dew Point: 26°   Wind: 7mph
Humidity: 89%   Direction: 300°WNW
Pressure: 29.98"   Gusts: NA
Location:  42.95°N, 75.25°W
Report Text: KRME 270253Z AUTO 30006KT 2 1/2SM -SN BR FEW015 OVC030 M02/M03 A2998 RMK AO2 SLP156 P0000 60002 T10171033 58017
Loading
Personal Weather Stations






























Interactive Weather Map New forecast layout! Learn more

10-Day Weather Forecast

Advertisements
Track Severe Weather on mobile